Time;durP1;ratioP1;P1;durP2;ratioP2;P2;SDS_P1;SDS_P2;PMS_P1;PMS_P2;Temp;Humidity;BMP_temperature;BMP_pressure;BME280_temperature;BME280_humidity;BME280_pressure;Samples;Min_cycle;Max_cycle;Signal;HPM_P1;HPM_P2
2023/09/09 00:02:21;;;;;;;4.45;0.50;;;;;;;11.48;90.50;95608.00;6220909;28;20050;-65
2023/09/09 00:05:23;;;;;;;1.48;0.20;;;;;;;11.48;91.42;95607.19;6221346;28;20057;-65
2023/09/09 00:08:27;;;;;;;0.45;0.25;;;;;;;11.46;91.71;95605.53;6221684;28;20133;-65
2023/09/09 00:11:30;;;;;;;;;;;;;;;11.59;91.08;95609.69;6221404;28;20053;-65
2023/09/09 00:14:32;;;;;;;0.40;0.20;;;;;;;11.46;90.61;95604.66;6220786;28;19928;-66
2023/09/09 00:17:33;;;;;;;0.40;0.40;;;;;;;11.39;91.24;95604.38;6220475;28;20054;-66
2023/09/09 00:20:40;;;;;;;0.57;0.40;;;;;;;11.33;91.27;95604.09;6220564;28;20049;-65
2023/09/09 00:23:44;;;;;;;1.85;0.80;;;;;;;11.22;91.39;95600.59;6221210;28;20045;-65
2023/09/09 00:26:48;;;;;;;;;;;;;;;11.22;91.08;95597.97;6221352;28;20046;-65
2023/09/09 00:29:52;;;;;;;0.57;0.28;;;;;;;11.16;91.52;95587.97;6220222;28;20356;-65
2023/09/09 00:32:57;;;;;;;1.85;0.50;;;;;;;11.14;91.78;95587.28;6220052;28;20220;-65
2023/09/09 00:36:04;;;;;;;0.90;0.50;;;;;;;11.09;91.66;95581.56;6202801;28;20045;-65
2023/09/09 00:39:08;;;;;;;1.17;0.65;;;;;;;11.13;91.34;95580.34;6203575;28;20046;-65
2023/09/09 00:42:09;;;;;;;1.48;0.40;;;;;;;11.11;91.25;95581.44;6219862;28;20053;-64
2023/09/09 00:45:11;;;;;;;0.85;0.55;;;;;;;11.12;91.39;95576.03;6209545;28;20054;-65
2023/09/09 00:48:12;;;;;;;0.70;0.38;;;;;;;11.05;91.28;95572.28;6193895;28;20137;-65
2023/09/09 00:51:18;;;;;;;;;;;;;;;11.05;91.58;95574.94;6193739;28;20038;-65
2023/09/09 00:54:21;;;;;;;2.03;0.50;;;;;;;11.00;91.86;95563.97;6195395;28;19929;-66
2023/09/09 00:57:25;;;;;;;2.08;0.63;;;;;;;11.03;92.58;95571.59;6195884;28;20039;-66
2023/09/09 01:00:30;;;;;;;7.13;0.70;;;;;;;11.05;92.84;95572.28;6194984;28;20421;-66
2023/09/09 01:03:31;;;;;;;0.90;0.40;;;;;;;11.05;92.50;95574.94;6195598;28;20268;-67
2023/09/09 01:06:33;;;;;;;6.07;0.65;;;;;;;11.04;91.88;95568.00;6195781;28;20045;-65
2023/09/09 01:09:35;;;;;;;0.75;0.25;;;;;;;11.02;92.13;95575.19;6194943;28;20054;-65
2023/09/09 01:12:43;;;;;;;0.40;0.28;;;;;;;10.94;92.36;95577.66;6194501;28;20058;-65
2023/09/09 01:15:48;;;;;;;0.77;0.50;;;;;;;10.86;92.78;95548.53;6196662;28;20430;-65
2023/09/09 01:18:55;;;;;;;5.28;0.52;;;;;;;10.94;93.11;95553.97;6199023;28;20046;-64
2023/09/09 01:22:03;;;;;;;;;;;;;;;10.97;93.36;95551.06;6195723;28;20065;-64
2023/09/09 01:25:07;;;;;;;0.55;0.35;;;;;;;10.93;93.28;95545.25;6196139;28;19921;-65
2023/09/09 01:28:11;;;;;;;0.50;0.20;;;;;;;10.92;93.42;95542.75;6196042;28;20490;-65
2023/09/09 01:31:12;;;;;;;0.75;0.20;;;;;;;10.88;93.51;95536.09;6195635;28;20410;-66
2023/09/09 01:34:16;;;;;;;0.40;0.22;;;;;;;10.89;93.57;95543.84;6194821;28;20493;-65
2023/09/09 01:37:18;;;;;;;;;;;;;;;10.84;93.63;95551.31;6195817;28;20041;-65
2023/09/09 01:40:24;;;;;;;0.73;0.30;;;;;;;10.85;93.90;95546.88;6194183;28;19917;-66
2023/09/09 01:43:30;;;;;;;3.20;0.28;;;;;;;10.90;94.13;95544.66;6194335;28;20039;-66
2023/09/09 01:46:32;;;;;;;1.08;0.20;;;;;;;10.91;94.15;95546.34;6195501;28;20042;-66
2023/09/09 01:49:35;;;;;;;0.95;0.35;;;;;;;10.90;94.09;95549.94;6195294;28;20049;-66
2023/09/09 01:52:40;;;;;;;3.83;0.30;;;;;;;10.85;94.12;95541.63;6195164;28;20089;-66
2023/09/09 01:55:43;;;;;;;1.17;0.20;;;;;;;10.84;94.18;95539.94;6195112;28;20073;-66
2023/09/09 01:58:47;;;;;;;0.90;0.30;;;;;;;10.85;94.14;95531.09;6194783;28;20050;-65
2023/09/09 02:01:48;;;;;;;0.60;0.30;;;;;;;10.78;93.80;95547.44;6195034;28;20042;-66
2023/09/09 02:04:52;;;;;;;3.80;0.75;;;;;;;10.76;94.16;95553.78;6193455;28;20537;-66
2023/09/09 02:07:56;;;;;;;13.45;6.03;;;;;;;10.84;94.29;95551.31;6195238;28;20039;-66
2023/09/09 02:11:00;;;;;;;2.63;1.50;;;;;;;10.90;94.45;95549.94;6194429;28;20052;-66
2023/09/09 02:14:01;;;;;;;3.78;1.00;;;;;;;10.96;94.45;95536.25;6195075;28;20047;-66
2023/09/09 02:17:03;;;;;;;2.42;1.98;;;;;;;10.83;94.40;95519.88;6194745;28;20410;-66
2023/09/09 02:20:06;;;;;;;4.13;0.80;;;;;;;11.00;94.37;95538.47;6193115;28;20057;-66
2023/09/09 02:23:10;;;;;;;9.35;4.70;;;;;;;11.08;94.50;95543.06;6194965;28;20054;-65
2023/09/09 02:26:14;;;;;;;6.00;2.63;;;;;;;11.13;94.75;95538.22;6195008;28;20050;-65
2023/09/09 02:29:19;;;;;;;1.38;0.85;;;;;;;11.14;94.74;95537.25;6194460;28;20042;-65
2023/09/09 02:32:23;;;;;;;4.30;1.00;;;;;;;11.05;94.50;95535.44;6194413;28;20053;-65
2023/09/09 02:35:27;;;;;;;1.90;1.02;;;;;;;10.99;94.34;95528.09;6198626;28;20046;-66
2023/09/09 02:38:28;;;;;;;2.60;0.80;;;;;;;10.89;94.12;95530.69;6199194;28;20050;-66
2023/09/09 02:41:30;;;;;;;2.40;0.80;;;;;;;10.78;93.77;95512.38;6198537;28;20558;-65
2023/09/09 02:44:33;;;;;;;;;;;;;;;10.81;93.81;95532.31;6199514;28;20042;-65
2023/09/09 02:47:37;;;;;;;5.72;1.77;;;;;;;10.82;94.14;95539.25;6198853;28;19922;-66
2023/09/09 02:50:39;;;;;;;9.55;1.83;;;;;;;10.89;94.31;95535.13;6198752;28;20061;-65
2023/09/09 02:53:41;;;;;;;3.05;1.52;;;;;;;10.91;94.52;95535.81;6198869;28;20038;-66
2023/09/09 02:56:47;;;;;;;14.70;7.38;;;;;;;11.00;94.48;95540.28;6198728;28;20035;-66
2023/09/09 02:59:52;;;;;;;9.77;5.10;;;;;;;11.05;94.84;95529.34;6198609;28;20042;-65
2023/09/09 03:02:56;;;;;;;19.63;10.45;;;;;;;11.18;94.77;95541.28;6198371;28;20521;-65
2023/09/09 03:06:02;;;;;;;9.45;4.28;;;;;;;11.27;94.99;95544.09;6198501;28;20046;-65
2023/09/09 03:09:09;;;;;;;5.55;2.30;;;;;;;11.32;95.15;95536.59;6197078;28;20414;-65
2023/09/09 03:12:10;;;;;;;6.03;1.40;;;;;;;11.45;95.09;95539.78;6198091;28;20057;-65
2023/09/09 03:15:17;;;;;;;1.17;0.80;;;;;;;11.45;94.85;95539.78;6198265;28;20422;-65
2023/09/09 03:18:20;;;;;;;1.30;0.70;;;;;;;11.34;94.20;95529.38;6198388;28;20042;-67
2023/09/09 03:21:26;;;;;;;;;;;;;;;11.27;93.67;95523.03;6197180;28;20066;-65
2023/09/09 03:24:31;;;;;;;1.23;0.47;;;;;;;11.23;94.04;95512.72;6197929;28;19921;-66
2023/09/09 03:27:35;;;;;;;5.05;3.00;;;;;;;11.31;93.80;95516.50;6197890;28;20038;-66
2023/09/09 03:30:58;;;;;;;4.63;3.05;;;;;;;11.25;93.33;95512.63;6180287;28;20414;-67
2023/09/09 03:34:03;;;;;;;6.68;3.10;;;;;;;11.14;93.17;95512.72;6197332;28;20157;-67
2023/09/09 03:37:05;;;;;;;3.75;2.03;;;;;;;11.06;93.16;95492.34;6197428;28;20050;-67
2023/09/09 03:40:06;;;;;;;1.67;1.27;;;;;;;11.27;92.68;95508.03;6197623;28;20045;-67
2023/09/09 03:43:14;;;;;;;1.48;1.00;;;;;;;11.20;92.59;95520.91;6197682;28;20149;-67
2023/09/09 03:46:16;;;;;;;0.50;0.40;;;;;;;11.31;92.92;95505.97;6196567;28;20053;-67
2023/09/09 03:49:17;;;;;;;1.23;0.40;;;;;;;11.50;92.38;95516.50;6196716;28;20050;-67
2023/09/09 03:52:22;;;;;;;0.73;0.25;;;;;;;11.75;92.86;95516.91;6196881;28;20058;-66
2023/09/09 03:55:24;;;;;;;0.50;0.28;;;;;;;11.95;92.60;95523.06;6196612;28;20518;-66
2023/09/09 03:58:26;;;;;;;0.40;0.30;;;;;;;11.97;92.19;95529.00;6196850;28;20054;-67
2023/09/09 04:01:28;;;;;;;3.00;1.50;;;;;;;11.99;92.21;95527.06;6196971;28;20046;-68
2023/09/09 04:04:33;;;;;;;0.93;0.52;;;;;;;12.03;92.17;95538.97;6196780;28;20038;-68
2023/09/09 04:07:37;;;;;;;0.75;0.30;;;;;;;11.99;92.09;95548.97;6197319;28;20057;-68
2023/09/09 04:10:40;;;;;;;;;;;;;;;12.08;91.72;95547.28;6197231;28;20529;-68
2023/09/09 04:13:46;;;;;;;0.20;0.20;;;;;;;12.18;92.62;95545.47;6197057;28;20431;-69
2023/09/09 04:16:55;;;;;;;0.35;0.25;;;;;;;12.32;92.71;95555.59;6198248;28;20047;-69
2023/09/09 04:19:59;;;;;;;3.03;2.53;;;;;;;12.47;92.80;95553.31;6197270;28;20074;-69
2023/09/09 04:23:04;;;;;;;3.72;2.45;;;;;;;12.76;92.60;95558.47;6196431;28;20041;-68
2023/09/09 04:26:07;;;;;;;0.65;0.40;;;;;;;13.02;92.52;95557.81;6196413;28;20045;-70
2023/09/09 04:29:14;;;;;;;2.55;1.95;;;;;;;13.35;91.68;95550.31;6196377;28;20042;-69
2023/09/09 04:32:21;;;;;;;1.23;0.77;;;;;;;13.75;91.61;95552.50;6195992;28;20549;-70
2023/09/09 04:35:27;;;;;;;1.40;0.60;;;;;;;13.97;91.11;95558.34;6196588;28;20046;-69
2023/09/09 04:38:32;;;;;;;1.27;1.15;;;;;;;14.16;90.38;95563.44;6195475;28;20065;-69
2023/09/09 04:41:37;;;;;;;3.22;2.08;;;;;;;14.25;89.76;95557.22;6196007;28;20054;-69
2023/09/09 04:44:41;;;;;;;5.05;2.10;;;;;;;14.37;89.05;95550.69;6196201;28;20043;-69
2023/09/09 04:47:45;;;;;;;4.18;1.98;;;;;;;14.48;88.25;95554.06;6195666;28;20053;-68
2023/09/09 04:50:46;;;;;;;;;;;;;;;14.63;87.23;95549.88;6195808;28;20057;-68
2023/09/09 04:53:47;;;;;;;8.45;2.38;;;;;;;14.62;88.29;95560.66;6195514;28;19937;-68
2023/09/09 04:56:51;;;;;;;4.03;2.38;;;;;;;14.75;87.55;95556.59;6195132;28;20046;-67
2023/09/09 04:59:53;;;;;;;14.90;5.22;;;;;;;14.97;86.96;95568.44;6194679;28;20053;-68
2023/09/09 05:02:59;;;;;;;12.10;3.40;;;;;;;15.09;86.29;95574.31;6195811;28;20493;-69
2023/09/09 05:06:03;;;;;;;17.85;3.88;;;;;;;15.10;85.07;95583.06;6195765;28;20034;-68
2023/09/09 05:09:09;;;;;;;20.45;3.92;;;;;;;14.97;84.59;95578.19;6196158;28;20042;-68
2023/09/09 05:12:14;;;;;;;16.25;4.90;;;;;;;14.85;84.30;95585.59;6195729;28;20046;-70
2023/09/09 05:15:18;;;;;;;13.75;3.70;;;;;;;14.77;84.01;95591.66;6195748;28;20422;-69
2023/09/09 05:18:22;;;;;;;11.90;6.20;;;;;;;14.96;84.18;95576.56;6195572;28;20046;-69
2023/09/09 05:21:25;;;;;;;23.95;8.75;;;;;;;15.33;83.83;95589.47;6195418;28;20038;-69
2023/09/09 05:24:28;;;;;;;;;;;;;;;15.58;82.68;95589.53;6195763;28;20044;-69
2023/09/09 05:27:32;;;;;;;8.45;3.53;;;;;;;15.36;81.55;95590.97;6195331;28;20293;-69
2023/09/09 05:30:39;;;;;;;6.95;4.00;;;;;;;15.64;79.52;95586.25;6194882;28;20054;-69
2023/09/09 05:33:43;;;;;;;6.93;4.70;;;;;;;15.83;76.70;95595.78;6194566;28;20065;-67
2023/09/09 05:36:47;;;;;;;4.28;3.63;;;;;;;15.85;76.25;95599.06;6194558;28;20043;-68
2023/09/09 05:39:51;;;;;;;5.78;3.92;;;;;;;16.10;76.79;95602.59;6195062;28;20039;-68
2023/09/09 05:42:56;;;;;;;5.40;3.88;;;;;;;16.30;76.24;95597.78;6195272;28;20038;-68
2023/09/09 05:45:59;;;;;;;6.28;3.47;;;;;;;16.30;74.35;95608.41;6195607;28;20045;-70
2023/09/09 05:49:03;;;;;;;8.48;5.20;;;;;;;17.11;74.99;95607.50;6194480;28;20051;-69
2023/09/09 05:52:07;;;;;;;5.15;3.95;;;;;;;18.61;72.91;95610.78;6195030;28;20046;-69
2023/09/09 05:55:08;;;;;;;4.07;2.88;;;;;;;19.31;70.76;95612.28;6195062;28;20137;-69
2023/09/09 05:58:12;;;;;;;3.38;2.80;;;;;;;19.45;69.72;95618.63;6195138;28;20090;-68
2023/09/09 06:01:13;;;;;;;3.58;2.40;;;;;;;18.94;69.67;95621.16;6195013;28;20026;-70
2023/09/09 06:04:18;;;;;;;2.55;2.10;;;;;;;18.35;69.96;95628.00;6194782;28;20046;-69
2023/09/09 06:07:27;;;;;;;2.58;2.00;;;;;;;17.97;70.60;95631.56;6196003;28;20038;-69
2023/09/09 06:10:30;;;;;;;2.70;1.42;;;;;;;17.85;70.54;95631.97;6199636;28;20414;-68
2023/09/09 06:13:32;;;;;;;2.05;0.68;;;;;;;17.72;70.42;95629.03;6198790;28;20082;-68
2023/09/09 06:16:36;;;;;;;1.17;0.80;;;;;;;17.48;70.26;95620.16;6199512;28;20046;-69
2023/09/09 06:19:43;;;;;;;0.60;0.50;;;;;;;17.11;69.24;95627.94;6199438;28;20437;-69
2023/09/09 06:22:47;;;;;;;0.50;0.35;;;;;;;16.99;68.41;95633.59;6198652;28;20043;-69
2023/09/09 06:25:52;;;;;;;0.20;0.20;;;;;;;17.30;67.45;95648.81;6199056;28;20057;-68
2023/09/09 06:28:53;;;;;;;0.22;0.20;;;;;;;17.48;67.45;95649.41;6199269;28;20125;-69
2023/09/09 06:32:00;;;;;;;0.73;0.40;;;;;;;17.41;65.00;95644.94;6198872;28;20042;-70
2023/09/09 06:35:02;;;;;;;1.05;0.55;;;;;;;17.47;63.75;95647.75;6198264;28;20054;-68
2023/09/09 06:38:10;;;;;;;0.85;0.45;;;;;;;17.74;64.06;95645.63;6199006;28;20494;-68
2023/09/09 06:41:15;;;;;;;1.23;0.17;;;;;;;17.80;59.76;95652.94;6198829;28;20049;-69
2023/09/09 06:44:16;;;;;;;0.50;0.50;;;;;;;17.63;62.80;95665.44;6197035;28;20046;-67
2023/09/09 06:47:20;;;;;;;0.60;0.40;;;;;;;17.62;63.09;95657.66;6198828;28;20034;-68
2023/09/09 06:50:24;;;;;;;1.08;0.25;;;;;;;17.27;63.11;95667.75;6198634;28;20038;-68
2023/09/09 06:53:30;;;;;;;1.02;0.20;;;;;;;17.42;62.60;95671.38;6197367;28;20050;-68
2023/09/09 06:56:34;;;;;;;0.60;0.57;;;;;;;18.04;62.12;95656.50;6198589;28;20461;-69
2023/09/09 06:59:36;;;;;;;0.20;0.20;;;;;;;19.59;57.58;95668.47;6198524;28;20046;-68
2023/09/09 07:02:41;;;;;;;0.85;0.35;;;;;;;21.23;53.19;95661.56;6198387;28;20425;-68
2023/09/09 07:05:42;;;;;;;0.40;0.30;;;;;;;23.68;49.17;95671.22;6198348;28;20522;-68
2023/09/09 07:08:47;;;;;;;0.38;0.20;;;;;;;26.63;40.82;95666.81;6198258;28;20038;-68
2023/09/09 07:11:51;;;;;;;0.10;0.10;;;;;;;26.54;38.13;95673.59;6197618;28;20050;-68
2023/09/09 07:14:57;;;;;;;0.20;0.10;;;;;;;25.01;39.09;95681.34;6197506;28;20506;-68
2023/09/09 07:18:01;;;;;;;0.43;0.30;;;;;;;23.40;40.78;95682.22;6198672;28;20417;-68
2023/09/09 07:21:02;;;;;;;0.10;0.00;;;;;;;23.43;42.28;95686.34;6196482;28;20054;-68
2023/09/09 07:24:04;;;;;;;0.10;0.10;;;;;;;24.55;39.55;95687.88;6197783;28;20530;-68
2023/09/09 07:27:08;;;;;;;0.28;0.28;;;;;;;24.34;40.03;95693.53;6197692;28;20057;-68
2023/09/09 07:30:10;;;;;;;2.42;1.48;;;;;;;23.74;41.98;95697.25;6197623;28;20042;-69
2023/09/09 07:33:14;;;;;;;0.10;0.10;;;;;;;22.63;41.42;95694.38;6197399;28;20062;-68
2023/09/09 07:36:18;;;;;;;1.88;0.82;;;;;;;21.82;43.04;95691.56;6197551;28;20042;-68
2023/09/09 07:39:20;;;;;;;0.32;0.10;;;;;;;21.24;44.83;95689.13;6197256;28;20049;-68
2023/09/09 07:42:24;;;;;;;0.10;0.10;;;;;;;20.77;45.67;95690.59;6197248;28;20050;-69
2023/09/09 07:45:27;;;;;;;0.40;0.20;;;;;;;20.21;47.30;95685.06;6197265;28;20065;-69
2023/09/09 07:48:29;;;;;;;0.60;0.17;;;;;;;20.01;47.60;95688.31;6196739;28;20065;-68
2023/09/09 07:51:33;;;;;;;0.22;0.13;;;;;;;19.91;47.70;95690.47;6197016;28;20046;-68
2023/09/09 07:54:40;;;;;;;0.50;0.10;;;;;;;19.98;47.81;95694.03;6197155;28;20042;-69
2023/09/09 07:57:41;;;;;;;0.00;0.00;;;;;;;19.77;47.82;95691.31;6196647;28;20042;-69
2023/09/09 08:00:44;;;;;;;0.10;0.08;;;;;;;19.39;47.95;95694.03;6196619;28;20122;-68
2023/09/09 08:03:48;;;;;;;0.10;0.10;;;;;;;18.88;48.96;95688.53;6197031;28;20141;-69
2023/09/09 08:06:52;;;;;;;0.98;0.20;;;;;;;18.54;51.09;95695.09;6196573;28;20200;-69
2023/09/09 08:09:59;;;;;;;0.80;0.00;;;;;;;18.34;49.07;95694.72;6196772;28;20042;-68
2023/09/09 08:13:01;;;;;;;0.10;0.10;;;;;;;17.86;50.58;95689.53;6196214;28;20076;-69
2023/09/09 08:16:05;;;;;;;0.00;0.00;;;;;;;17.66;49.84;95682.91;6195982;28;20485;-69
2023/09/09 08:19:11;;;;;;;0.75;0.52;;;;;;;17.42;51.53;95692.63;6196947;28;20619;-68
2023/09/09 08:22:15;;;;;;;0.38;0.30;;;;;;;17.61;52.01;95698.56;6196317;28;20649;-68
2023/09/09 08:25:22;;;;;;;0.30;0.20;;;;;;;17.70;51.12;95681.56;6196423;28;20046;-69
2023/09/09 08:28:23;;;;;;;0.30;0.28;;;;;;;17.70;50.83;95705.53;6196108;28;20053;-69
2023/09/09 08:31:25;;;;;;;0.30;0.30;;;;;;;17.50;51.27;95695.28;6195664;28;20050;-68
2023/09/09 08:34:26;;;;;;;1.15;0.70;;;;;;;17.34;52.05;95697.97;6195136;28;20085;-68
2023/09/09 08:37:30;;;;;;;0.22;0.20;;;;;;;17.20;52.93;95706.66;6196285;28;20145;-69
2023/09/09 08:40:45;;;;;;;0.17;0.17;;;;;;;17.06;54.16;95711.63;6195817;28;20053;-70
2023/09/09 08:43:56;;;;;;;0.22;0.20;;;;;;;17.40;53.99;95713.25;6195832;28;20046;-69
2023/09/09 08:47:00;;;;;;;0.52;0.20;;;;;;;17.92;51.92;95706.63;6195279;28;20513;-69
2023/09/09 08:50:04;;;;;;;0.10;0.10;;;;;;;18.29;50.15;95713.91;6195339;28;20093;-69
2023/09/09 08:53:12;;;;;;;0.20;0.17;;;;;;;18.87;48.77;95710.88;6195579;28;20446;-69
2023/09/09 08:56:16;;;;;;;3.40;0.30;;;;;;;22.46;42.74;95723.41;6195474;28;20137;-69
2023/09/09 08:59:22;;;;;;;0.40;0.10;;;;;;;23.45;39.51;95733.44;6212127;28;20049;-68
2023/09/09 09:02:26;;;;;;;0.25;0.20;;;;;;;24.20;38.60;95722.34;6218296;28;20058;-68
2023/09/09 09:05:32;;;;;;;0.25;0.20;;;;;;;24.49;37.10;95729.09;6218550;28;20053;-68
2023/09/09 09:08:36;;;;;;;0.10;0.08;;;;;;;24.18;38.19;95730.63;6218435;28;20540;-68
2023/09/09 09:11:41;;;;;;;0.38;0.10;;;;;;;23.72;38.18;95742.34;6219057;28;20064;-68
2023/09/09 09:14:48;;;;;;;0.40;0.22;;;;;;;22.78;39.82;95745.13;6218653;28;20505;-68
2023/09/09 09:17:53;;;;;;;0.40;0.10;;;;;;;22.54;41.29;95738.47;6219713;28;20569;-68
2023/09/09 09:21:08;;;;;;;0.60;0.35;;;;;;;22.15;40.91;95739.94;6219439;28;20054;-69
2023/09/09 09:24:13;;;;;;;0.60;0.30;;;;;;;21.30;42.86;95741.88;6219852;28;20045;-68
2023/09/09 09:27:18;;;;;;;0.30;0.30;;;;;;;20.63;44.12;95735.91;6219823;28;20515;-67
2023/09/09 09:30:24;;;;;;;0.45;0.25;;;;;;;20.04;45.20;95751.22;6219663;28;20407;-68
2023/09/09 09:33:30;;;;;;;0.40;0.20;;;;;;;19.42;46.17;95741.69;6219369;28;20057;-69
2023/09/09 09:36:34;;;;;;;1.77;0.80;;;;;;;19.06;47.51;95735.19;6218921;28;20050;-69
2023/09/09 09:39:39;;;;;;;2.30;0.50;;;;;;;18.88;47.52;95745.34;6219471;28;20046;-69
2023/09/09 09:42:44;;;;;;;0.57;0.47;;;;;;;18.60;48.57;95745.03;6220642;28;20053;-69
2023/09/09 09:45:48;;;;;;;1.40;0.85;;;;;;;18.63;48.78;95752.66;6206537;28;20045;-69
2023/09/09 09:48:52;;;;;;;1.33;0.80;;;;;;;18.63;49.00;95748.16;6207494;28;20049;-69
2023/09/09 09:51:58;;;;;;;1.92;0.90;;;;;;;18.85;49.09;95756.34;6224414;28;20651;-68
2023/09/09 09:54:59;;;;;;;3.15;0.98;;;;;;;18.99;48.57;95757.41;6223046;28;20437;-69
2023/09/09 09:58:06;;;;;;;2.35;1.08;;;;;;;19.11;47.98;95756.00;6224325;28;20056;-69
2023/09/09 10:01:08;;;;;;;2.30;1.45;;;;;;;19.40;46.83;95757.06;6206612;28;20052;-69
2023/09/09 10:04:16;;;;;;;1.92;1.38;;;;;;;19.56;46.88;95746.22;6223401;28;20050;-69
2023/09/09 10:07:24;;;;;;;3.47;1.48;;;;;;;20.69;44.90;95761.03;6223029;28;20049;-68
2023/09/09 10:10:35;;;;;;;1.58;1.20;;;;;;;21.57;42.83;95758.13;6223087;28;20497;-69
2023/09/09 10:13:46;;;;;;;1.85;1.15;;;;;;;20.99;43.39;95751.06;6222458;28;20085;-68
2023/09/09 10:16:56;;;;;;;2.60;0.90;;;;;;;20.52;44.69;95749.75;6225315;28;20037;-68
2023/09/09 10:20:05;;;;;;;2.30;1.10;;;;;;;20.38;44.75;95762.13;6223437;28;20053;-68
2023/09/09 10:23:09;;;;;;;2.53;0.90;;;;;;;20.21;44.85;95773.19;6222851;28;20056;-70
2023/09/09 10:26:16;;;;;;;2.42;1.20;;;;;;;19.72;46.17;95770.09;6222905;28;20093;-68
2023/09/09 10:29:19;;;;;;;1.70;0.80;;;;;;;19.16;46.74;95780.25;6223018;28;20048;-68
2023/09/09 10:32:21;;;;;;;1.52;0.90;;;;;;;18.53;48.34;95776.03;6222145;28;20053;-68
2023/09/09 10:35:24;;;;;;;2.05;1.00;;;;;;;18.13;49.54;95785.88;6222608;28;20137;-68
2023/09/09 10:38:27;;;;;;;1.33;0.85;;;;;;;18.24;49.36;95790.00;6223383;28;20045;-69
2023/09/09 10:41:32;;;;;;;1.73;0.60;;;;;;;18.92;47.46;95786.63;6222817;28;20050;-68
2023/09/09 10:44:39;;;;;;;1.38;0.75;;;;;;;19.18;46.20;95799.56;6223557;28;20537;-68
2023/09/09 10:48:10;;;;;;;0.70;0.63;;;;;;;19.01;46.88;95798.06;6221796;28;20045;-69
2023/09/09 10:51:16;;;;;;;1.92;0.93;;;;;;;18.86;47.14;95805.16;6222825;28;20460;-71
2023/09/09 10:54:24;;;;;;;1.40;0.50;;;;;;;18.76;47.76;95811.53;6221735;28;20049;-70
2023/09/09 10:57:34;;;;;;;0.90;0.50;;;;;;;18.71;47.60;95803.22;6222823;28;20045;-68
2023/09/09 11:00:41;;;;;;;1.65;0.80;;;;;;;18.78;48.02;95804.19;6222949;28;20045;-68
2023/09/09 11:03:44;;;;;;;1.50;1.05;;;;;;;18.77;47.69;95801.72;6222689;28;20045;-68
2023/09/09 11:07:07;;;;;;;1.63;0.70;;;;;;;18.77;48.13;95802.56;6222000;28;20045;-69
2023/09/09 11:10:15;;;;;;;0.87;0.40;;;;;;;18.56;47.56;95794.31;6222260;28;20049;-68
2023/09/09 11:13:18;;;;;;;0.60;0.32;;;;;;;18.11;48.54;95798.53;6222590;28;20057;-68
2023/09/09 11:16:48;;;;;;;0.38;0.10;;;;;;;17.97;49.11;95793.91;6222149;28;20457;-68
2023/09/09 11:19:54;;;;;;;0.45;0.45;;;;;;;17.86;48.81;95795.97;6221573;28;20080;-68
2023/09/09 11:22:58;;;;;;;1.67;1.33;;;;;;;17.55;48.94;95801.16;6221189;28;20050;-70
2023/09/09 11:26:01;;;;;;;1.95;0.70;;;;;;;17.12;49.57;95810.31;6204037;28;20060;-69
2023/09/09 11:29:07;;;;;;;2.00;1.58;;;;;;;16.65;51.30;95797.63;6221487;28;20565;-69
2023/09/09 11:32:22;;;;;;;2.65;1.00;;;;;;;16.21;52.26;95784.56;6221527;28;20042;-70
2023/09/09 11:35:30;;;;;;;0.98;0.85;;;;;;;15.84;53.21;95799.00;6222088;28;20132;-69
2023/09/09 11:38:35;;;;;;;3.25;1.80;;;;;;;15.80;54.17;95797.66;6221313;28;20485;-69
2023/09/09 11:41:39;;;;;;;2.33;0.50;;;;;;;15.77;54.48;95788.22;6221128;28;20045;-70
2023/09/09 11:44:41;;;;;;;2.58;1.23;;;;;;;15.65;54.66;95794.72;6221010;28;20049;-69
2023/09/09 11:47:43;;;;;;;1.00;0.90;;;;;;;15.61;55.28;95775.66;6220663;28;20576;-69
2023/09/09 11:50:48;;;;;;;1.73;1.00;;;;;;;15.63;55.36;95792.25;6221682;28;20045;-68
2023/09/09 11:53:55;;;;;;;1.73;1.00;;;;;;;15.69;55.31;95775.72;6221193;28;20125;-70
2023/09/09 11:57:08;;;;;;;2.03;0.60;;;;;;;15.84;55.12;95783.09;6204331;28;20444;-68
2023/09/09 12:00:21;;;;;;;0.50;0.50;;;;;;;16.03;54.87;95776.72;6221509;28;20050;-68
2023/09/09 12:03:27;;;;;;;1.45;0.40;;;;;;;15.73;55.53;95786.84;6221312;28;20037;-69
2023/09/09 12:06:31;;;;;;;0.15;0.15;;;;;;;15.65;55.95;95800.88;6220890;28;20042;-69
2023/09/09 12:09:37;;;;;;;0.95;0.10;;;;;;;15.34;56.69;95802.31;6221110;28;20425;-69
2023/09/09 12:12:42;;;;;;;;;;;;;;;15.14;56.83;95802.50;6221397;28;20038;-71
2023/09/09 12:15:43;;;;;;;;;;;;;;;14.79;57.28;95803.38;6221148;28;19928;-69
2023/09/09 12:18:53;;;;;;;0.10;0.10;;;;;;;14.54;58.50;95803.13;6220833;28;19927;-70
2023/09/09 12:22:01;;;;;;;0.08;0.08;;;;;;;14.26;59.46;95815.53;6220618;28;20416;-70
2023/09/09 12:25:05;;;;;;;0.10;0.10;;;;;;;14.00;60.14;95811.91;6220707;28;20042;-69
2023/09/09 12:28:18;;;;;;;0.30;0.30;;;;;;;13.76;60.50;95826.50;6220715;28;20163;-69
2023/09/09 12:31:19;;;;;;;1.58;0.68;;;;;;;13.47;60.96;95830.06;6220050;28;20053;-69
2023/09/09 12:34:29;;;;;;;1.65;0.77;;;;;;;13.18;62.16;95810.75;6219967;28;20069;-70
2023/09/09 12:37:32;;;;;;;0.55;0.47;;;;;;;13.02;62.45;95820.09;6220356;28;20447;-70
2023/09/09 12:41:04;;;;;;;0.63;0.50;;;;;;;12.95;63.04;95821.59;6220169;28;20528;-70
2023/09/09 12:44:11;;;;;;;2.40;0.80;;;;;;;12.83;63.47;95821.91;6205539;28;20505;-69
2023/09/09 12:47:12;;;;;;;1.25;0.65;;;;;;;12.73;64.16;95819.25;6220261;28;20532;-69
2023/09/09 12:50:16;;;;;;;0.65;0.30;;;;;;;12.61;64.97;95815.09;6220115;28;20045;-69
2023/09/09 12:53:21;;;;;;;1.55;0.70;;;;;;;12.47;66.10;95800.50;6219589;28;20058;-69
2023/09/09 12:56:23;;;;;;;0.75;0.50;;;;;;;12.32;67.25;95800.06;6220027;28;20044;-69
2023/09/09 12:59:24;;;;;;;0.90;0.63;;;;;;;12.13;68.19;95806.94;6220216;28;20053;-71
2023/09/09 13:02:28;;;;;;;1.95;1.13;;;;;;;11.99;68.93;95794.13;6219811;28;20042;-68
2023/09/09 13:05:33;;;;;;;;;;;;;;;11.83;68.78;95791.13;6220453;28;20057;-69
2023/09/09 13:08:37;;;;;;;1.83;0.77;;;;;;;11.69;70.40;95789.69;6220082;28;19921;-70
2023/09/09 13:11:41;;;;;;;1.80;0.90;;;;;;;11.61;71.38;95782.47;6219344;28;20529;-70
2023/09/09 13:14:43;;;;;;;1.90;1.45;;;;;;;11.51;71.91;95776.31;6220220;28;20132;-70
2023/09/09 13:17:47;;;;;;;;;;;;;;;11.44;71.88;95786.56;6221232;28;20050;-70
2023/09/09 13:20:50;;;;;;;1.50;1.15;;;;;;;11.35;72.97;95776.81;6219834;28;19917;-70
2023/09/09 13:23:58;;;;;;;1.35;1.00;;;;;;;11.29;73.66;95771.22;6219971;28;20045;-69
2023/09/09 13:27:02;;;;;;;0.55;0.30;;;;;;;11.28;73.80;95759.03;6219857;28;20046;-71
2023/09/09 13:30:05;;;;;;;0.20;0.20;;;;;;;11.18;74.50;95780.88;6219224;28;20414;-69
2023/09/09 13:33:15;;;;;;;0.22;0.22;;;;;;;11.04;75.07;95786.47;6219513;28;20066;-71
2023/09/09 13:36:16;;;;;;;0.30;0.30;;;;;;;11.03;75.05;95787.44;6219314;28;20137;-70
2023/09/09 13:39:18;;;;;;;0.70;0.40;;;;;;;10.99;75.56;95802.66;6218808;28;20424;-71
2023/09/09 13:42:21;;;;;;;;;;;;;;;11.02;74.79;95791.03;6220100;28;20657;-70
2023/09/09 13:45:29;;;;;;;0.20;0.20;;;;;;;11.09;75.18;95797.44;6219479;28;19917;-70
2023/09/09 13:48:32;;;;;;;0.38;0.20;;;;;;;11.15;74.86;95802.22;6218855;28;20425;-70
2023/09/09 13:51:36;;;;;;;0.68;0.30;;;;;;;11.29;74.01;95784.38;6219604;28;20045;-70
2023/09/09 13:54:40;;;;;;;0.70;0.50;;;;;;;11.20;74.43;95784.19;6219321;28;20042;-70
2023/09/09 13:57:45;;;;;;;1.05;0.65;;;;;;;11.22;74.29;95792.00;6218888;28;20628;-70
2023/09/09 14:00:50;;;;;;;0.73;0.50;;;;;;;11.20;74.08;95793.91;6201328;28;20487;-70
2023/09/09 14:03:53;;;;;;;0.50;0.40;;;;;;;11.20;73.87;95786.84;6218720;28;20054;-70
2023/09/09 14:06:57;;;;;;;1.92;0.60;;;;;;;11.15;73.82;95789.03;6219340;28;20132;-71
2023/09/09 14:09:59;;;;;;;0.40;0.40;;;;;;;11.19;73.42;95790.44;6218488;28;20042;-70
2023/09/09 14:13:06;;;;;;;3.42;1.52;;;;;;;11.00;73.52;95767.47;6218647;28;20434;-70
2023/09/09 14:16:12;;;;;;;6.25;1.42;;;;;;;11.02;73.96;95798.94;6219338;28;20460;-71
2023/09/09 14:19:18;;;;;;;1.77;0.90;;;;;;;11.10;73.51;95799.13;6219194;28;20042;-69
2023/09/09 14:22:20;;;;;;;0.43;0.40;;;;;;;10.92;74.21;95795.38;6218619;28;20061;-69
2023/09/09 14:25:24;;;;;;;3.90;0.70;;;;;;;10.97;74.19;95798.47;6217986;28;20096;-71
2023/09/09 14:28:31;;;;;;;1.60;0.47;;;;;;;11.02;73.99;95794.50;6220197;28;20157;-69
2023/09/09 14:31:38;;;;;;;1.65;0.80;;;;;;;10.98;74.29;95800.13;6223717;28;20038;-70
2023/09/09 14:34:47;;;;;;;5.25;0.90;;;;;;;10.94;74.53;95804.00;6223196;28;20049;-71